createdAt,value
2023-02-14T06:00:30.017Z,69.40
2023-02-14T06:15:42.908Z,69.10
2023-02-14T06:30:55.941Z,69.00
2023-02-14T06:41:05.501Z,69.60
2023-02-14T06:46:11.189Z,69.10
2023-02-14T07:01:24.453Z,90.70
2023-02-14T07:06:28.154Z,90.50
2023-02-14T07:11:31.916Z,90.70
2023-02-14T07:16:36.967Z,69.50
2023-02-14T07:21:40.692Z,90.70
2023-02-14T07:26:44.566Z,70.00
2023-02-14T07:31:49.714Z,70.10
2023-02-14T07:36:53.470Z,70.10
2023-02-14T07:41:57.146Z,70.00
2023-02-14T07:47:05.398Z,70.10
2023-02-14T07:52:09.326Z,70.00
2023-02-14T07:57:13.023Z,70.00
2023-02-14T08:02:18.110Z,69.80
2023-02-14T08:07:21.857Z,70.10
2023-02-14T08:12:54.908Z,70.40
2023-02-14T08:18:00.066Z,69.90
2023-02-14T08:23:03.790Z,70.30
2023-02-14T08:28:07.983Z,70.40
2023-02-14T08:33:13.356Z,70.60
2023-02-14T08:38:17.005Z,70.30
2023-02-14T08:43:20.664Z,70.10
2023-02-14T08:48:26.908Z,70.10
2023-02-14T08:53:30.782Z,69.60
2023-02-14T08:58:35.957Z,69.80
2023-02-14T09:03:41.087Z,70.50
2023-02-14T09:08:45.484Z,69.80
2023-02-14T09:13:50.764Z,69.80
2023-02-14T09:18:56.752Z,69.10
2023-02-14T09:24:00.740Z,68.80
2023-02-14T09:29:04.498Z,68.00
2023-02-14T09:34:27.247Z,67.00
2023-02-14T09:39:31.069Z,65.60
2023-02-14T09:44:38.469Z,64.40
2023-02-14T09:49:44.001Z,63.60
2023-02-14T09:54:52.376Z,62.60
2023-02-14T10:00:03.811Z,62.10
2023-02-14T10:05:15.386Z,61.90
2023-02-14T10:10:25.029Z,61.10
2023-02-14T10:15:33.554Z,60.40
2023-02-14T10:20:43.295Z,59.20
2023-02-14T10:25:55.159Z,59.60
2023-02-14T10:31:08.981Z,58.40
2023-02-14T10:36:22.378Z,57.30
2023-02-14T10:41:33.088Z,56.40
2023-02-14T10:46:44.229Z,55.60
2023-02-14T10:51:56.999Z,54.90
2023-02-14T10:57:03.898Z,54.20
2023-02-14T11:02:10.458Z,53.80
2023-02-14T11:07:16.434Z,53.80
2023-02-14T11:12:38.563Z,53.70
2023-02-14T11:17:43.246Z,52.70
2023-02-14T11:22:48.350Z,52.50
2023-02-14T11:27:58.796Z,52.10
2023-02-14T11:33:04.473Z,51.80
2023-02-14T11:38:30.529Z,51.30
2023-02-14T11:43:37.191Z,49.90
2023-02-14T11:48:40.919Z,49.50
2023-02-14T11:53:49.039Z,49.50
2023-02-14T11:58:56.541Z,50.10
2023-02-14T12:04:04.394Z,49.80
2023-02-14T12:09:28.126Z,49.50
2023-02-14T12:14:33.140Z,48.20
2023-02-14T12:19:43.467Z,48.70
2023-02-14T12:24:57.851Z,47.40
2023-02-14T12:30:07.859Z,46.80
2023-02-14T12:35:16.949Z,46.00
2023-02-14T12:40:28.844Z,46.30
2023-02-14T12:45:59.113Z,45.70
2023-02-14T12:51:11.667Z,45.40
2023-02-14T12:56:24.568Z,45.80
2023-02-14T13:01:44.447Z,44.70
2023-02-14T13:06:52.899Z,44.10
2023-02-14T13:12:08.961Z,44.00
2023-02-14T13:17:21.902Z,43.50
2023-02-14T13:22:29.960Z,42.50
2023-02-14T13:27:40.112Z,41.90
2023-02-14T13:32:46.821Z,41.80
2023-02-14T13:37:54.486Z,41.60
2023-02-14T13:43:00.458Z,41.50
2023-02-14T13:48:07.053Z,42.80
2023-02-14T13:53:13.720Z,42.50
2023-02-14T13:58:21.811Z,43.40
2023-02-14T14:03:55.725Z,43.10
2023-02-14T14:08:59.496Z,42.10
2023-02-14T14:14:27.445Z,42.70
2023-02-14T14:19:39.822Z,42.10
2023-02-14T14:24:57.065Z,42.50
2023-02-14T14:30:04.168Z,42.20
2023-02-14T14:35:18.001Z,41.90
2023-02-14T14:40:26.631Z,42.80
2023-02-14T14:45:32.720Z,42.90
2023-02-14T14:50:37.655Z,42.70
2023-02-14T14:55:51.933Z,42.60
2023-02-14T15:00:57.129Z,41.90
2023-02-14T15:06:08.276Z,42.20
2023-02-14T15:11:36.406Z,41.00
2023-02-14T15:16:48.477Z,41.00
2023-02-14T15:21:52.330Z,41.00
2023-02-14T15:26:56.516Z,41.30
2023-02-14T15:32:03.732Z,41.40
2023-02-14T15:37:08.361Z,41.80
2023-02-14T15:42:25.742Z,41.90
2023-02-14T15:47:30.928Z,41.90
2023-02-14T15:52:34.637Z,42.90
2023-02-14T15:57:39.050Z,42.50
2023-02-14T16:02:47.943Z,42.90
2023-02-14T16:07:59.652Z,43.20
2023-02-14T16:13:06.553Z,43.40
2023-02-14T16:18:32.790Z,43.80
2023-02-14T16:23:37.527Z,44.10
2023-02-14T16:28:43.300Z,44.30
2023-02-14T16:33:48.575Z,44.70
2023-02-14T16:38:52.997Z,45.00
2023-02-14T16:43:57.415Z,45.10
2023-02-14T16:49:02.838Z,45.40
2023-02-14T16:54:09.954Z,45.80
2023-02-14T16:59:13.640Z,45.90
2023-02-14T17:04:18.690Z,46.20
2023-02-14T17:09:27.312Z,46.40
2023-02-14T17:14:36.931Z,46.40
2023-02-14T17:19:42.073Z,46.70
2023-02-14T17:24:45.787Z,47.00
2023-02-14T17:29:51.539Z,47.10
2023-02-14T17:34:57.257Z,47.40
2023-02-14T17:40:01.016Z,47.60
2023-02-14T17:45:06.274Z,47.70
2023-02-14T17:50:11.862Z,47.90
2023-02-14T17:55:16.840Z,48.30
2023-02-14T18:00:22.360Z,48.30
2023-02-14T18:05:27.398Z,48.40
2023-02-14T18:10:31.088Z,48.60
2023-02-14T18:15:35.081Z,48.80
2023-02-14T18:20:40.084Z,48.90
2023-02-14T18:25:50.752Z,49.20
2023-02-14T18:30:57.162Z,49.50
2023-02-14T18:36:04.877Z,49.70
2023-02-14T18:41:11.384Z,50.00
2023-02-14T18:46:16.808Z,50.30
2023-02-14T18:51:24.713Z,50.50
2023-02-14T18:56:30.818Z,50.90
2023-02-14T19:01:36.849Z,51.20
2023-02-14T19:06:43.129Z,51.20
2023-02-14T19:11:46.954Z,51.50
2023-02-14T19:16:53.426Z,51.80
2023-02-14T19:21:59.840Z,52.20
2023-02-14T19:27:03.795Z,52.40
2023-02-14T19:32:07.700Z,52.60
2023-02-14T19:37:13.139Z,52.80
2023-02-14T19:42:16.816Z,53.00
2023-02-14T19:47:33.581Z,53.20
2023-02-14T19:52:46.454Z,53.30
2023-02-14T19:57:50.399Z,54.00
2023-02-14T20:02:54.260Z,54.10
2023-02-14T20:08:01.255Z,54.00
2023-02-14T20:13:05.061Z,54.40
2023-02-14T20:18:08.892Z,54.40
2023-02-14T20:23:13.990Z,54.60
2023-02-14T20:28:17.748Z,54.80
2023-02-14T20:33:21.402Z,54.80
2023-02-14T20:38:26.437Z,55.10
2023-02-14T20:43:30.145Z,55.30
2023-02-14T20:48:35.418Z,55.50
2023-02-14T20:53:41.230Z,55.60
2023-02-14T20:58:45.098Z,55.80
2023-02-14T21:03:51.527Z,56.10
2023-02-14T21:08:57.180Z,56.30
2023-02-14T21:14:02.557Z,56.40
2023-02-14T21:19:06.204Z,56.50
2023-02-14T21:24:13.183Z,56.60
2023-02-14T21:29:16.888Z,56.70
2023-02-14T21:34:20.617Z,56.70
2023-02-14T21:39:27.859Z,57.30
2023-02-14T21:44:57.912Z,57.40
2023-02-14T21:50:19.188Z,57.60
2023-02-14T21:55:24.326Z,58.00
2023-02-14T22:00:27.947Z,58.20
2023-02-14T22:05:34.704Z,58.30
2023-02-14T22:10:41.214Z,58.40
2023-02-14T22:15:44.863Z,58.60
2023-02-14T22:20:48.503Z,58.80
2023-02-14T22:25:53.477Z,59.00
2023-02-14T22:31:01.161Z,59.20
2023-02-14T22:36:05.777Z,59.40
2023-02-14T22:41:11.806Z,59.30
2023-02-14T22:46:18.080Z,59.60
2023-02-14T22:51:23.618Z,59.50
2023-02-14T22:56:31.067Z,59.60
2023-02-14T23:01:36.403Z,59.80
2023-02-14T23:06:40.141Z,59.80
2023-02-14T23:11:47.207Z,59.90
2023-02-14T23:17:20.518Z,60.60
2023-02-14T23:22:26.055Z,60.10
2023-02-14T23:27:34.742Z,60.20
